createdAt,value
2019-05-23T00:01:40.268Z,36.42
2019-05-23T00:04:14.577Z,33.80
2019-05-23T00:06:44.026Z,35.90
2019-05-23T00:09:13.528Z,35.40
2019-05-23T00:11:44.597Z,38.08
2019-05-23T00:14:40.009Z,36.70
2019-05-23T00:17:12.389Z,38.05
2019-05-23T00:19:42.347Z,39.85
2019-05-23T00:22:11.685Z,40.75
2019-05-23T00:24:42.645Z,40.92
2019-05-23T00:27:12.841Z,42.05
2019-05-23T00:29:43.300Z,42.08
2019-05-23T00:32:32.997Z,41.37
2019-05-23T00:35:04.379Z,42.20
2019-05-23T00:37:34.706Z,41.35
2019-05-23T00:40:04.024Z,42.53
2019-05-23T00:42:33.223Z,46.80
2019-05-23T00:45:02.546Z,46.00
2019-05-23T00:47:31.741Z,44.15
2019-05-23T00:50:01.269Z,43.15
2019-05-23T00:52:30.313Z,48.52
2019-05-23T00:55:20.145Z,49.13
2019-05-23T00:57:49.268Z,46.95
2019-05-23T01:00:21.184Z,56.80
2019-05-23T01:02:49.896Z,55.17
2019-05-23T01:05:18.805Z,54.13
2019-05-23T01:07:48.399Z,51.95
2019-05-23T01:10:19.200Z,52.85
2019-05-23T01:12:48.098Z,55.20
2019-05-23T01:15:17.411Z,51.80
2019-05-23T01:17:47.908Z,50.10
2019-05-23T01:20:18.781Z,56.18
2019-05-23T01:22:48.909Z,51.08
2019-05-23T01:25:21.387Z,51.95
2019-05-23T01:30:20.792Z,51.83
2019-05-23T01:32:51.471Z,56.48
2019-05-23T01:35:22.370Z,55.63
2019-05-23T01:37:51.864Z,52.53
2019-05-23T01:40:21.854Z,55.35
2019-05-23T01:42:51.608Z,57.13
2019-05-23T01:45:22.822Z,58.33
2019-05-23T01:47:52.102Z,60.17
2019-05-23T01:50:25.395Z,64.67
2019-05-23T01:52:54.298Z,71.00
2019-05-23T01:55:23.824Z,69.20
2019-05-23T01:57:53.722Z,63.98
2019-05-23T02:00:24.584Z,66.33
2019-05-23T02:02:54.829Z,66.30
2019-05-23T02:05:25.582Z,71.33
2019-05-23T02:07:55.368Z,70.40
2019-05-23T02:10:24.673Z,65.03
2019-05-23T02:12:53.971Z,61.58
2019-05-23T02:15:25.124Z,59.20
2019-05-23T02:17:54.071Z,58.73
2019-05-23T02:20:23.516Z,57.60
2019-05-23T02:22:53.113Z,52.43
2019-05-23T02:25:23.009Z,49.33
2019-05-23T02:27:53.516Z,48.55
2019-05-23T02:30:34.317Z,43.30
2019-05-23T02:32:53.385Z,41.68
2019-05-23T02:35:22.781Z,39.15
2019-05-23T02:38:09.381Z,38.02
2019-05-23T02:40:43.660Z,41.45
2019-05-23T02:43:16.945Z,41.70
2019-05-23T02:45:50.019Z,42.03
2019-05-23T02:48:20.428Z,39.78
2019-05-23T02:50:53.370Z,38.00
2019-05-23T02:53:25.477Z,38.90
2019-05-23T02:55:57.992Z,36.05
2019-05-23T03:01:01.348Z,33.08
2019-05-23T03:03:32.065Z,33.18
2019-05-23T03:06:02.082Z,32.20
2019-05-23T03:08:32.002Z,31.52
2019-05-23T03:11:17.241Z,29.00
2019-05-23T03:13:47.536Z,29.23
2019-05-23T03:16:19.270Z,30.12
2019-05-23T03:18:51.251Z,33.73
2019-05-23T03:21:19.939Z,32.98
2019-05-23T03:23:49.426Z,31.87
2019-05-23T03:26:33.630Z,30.85
2019-05-23T03:29:03.425Z,30.80
2019-05-23T03:31:34.701Z,29.98
2019-05-23T03:34:04.017Z,30.10
2019-05-23T03:36:33.165Z,29.10
2019-05-23T03:39:02.877Z,29.23
2019-05-23T03:41:32.094Z,29.02
2019-05-23T03:44:03.237Z,28.00
2019-05-23T03:46:34.002Z,26.37
2019-05-23T03:49:03.800Z,25.62
2019-05-23T03:51:32.828Z,26.90
2019-05-23T03:54:02.753Z,26.30
2019-05-23T03:56:31.510Z,27.65
2019-05-23T03:59:00.862Z,25.05
2019-05-23T04:01:47.035Z,23.92
2019-05-23T04:04:03.248Z,26.85
2019-05-23T04:06:33.148Z,30.43
2019-05-23T04:09:03.888Z,32.13
2019-05-23T04:11:32.597Z,31.55
2019-05-23T04:14:01.902Z,29.35
2019-05-23T04:16:31.077Z,30.82
2019-05-23T04:18:59.788Z,33.67
2019-05-23T04:21:28.879Z,33.75
2019-05-23T04:23:57.613Z,33.18
2019-05-23T04:26:26.866Z,31.40
2019-05-23T04:28:55.761Z,31.23
2019-05-23T04:31:25.081Z,24.65
2019-05-23T04:33:54.101Z,26.02
2019-05-23T04:36:23.530Z,24.85
2019-05-23T04:38:52.489Z,21.55
2019-05-23T04:41:21.227Z,24.98
2019-05-23T04:43:49.950Z,30.20
2019-05-23T04:46:18.673Z,32.88
2019-05-23T04:48:47.442Z,35.50
2019-05-23T04:51:16.460Z,34.30
2019-05-23T04:53:45.098Z,33.78
2019-05-23T04:56:14.469Z,32.63
2019-05-23T04:58:44.759Z,36.35
2019-05-23T05:01:13.876Z,35.08
2019-05-23T05:03:45.329Z,33.60
2019-05-23T05:06:14.956Z,25.65
2019-05-23T05:08:43.784Z,26.25
2019-05-23T05:11:12.841Z,27.25
2019-05-23T05:13:42.370Z,50.65
2019-05-23T05:16:11.691Z,27.42
2019-05-23T05:18:41.227Z,20.40
2019-05-23T05:21:10.016Z,18.67
2019-05-23T05:23:38.748Z,12.10
2019-05-23T05:26:10.472Z,8.55
2019-05-23T05:28:39.204Z,8.45
2019-05-23T05:31:08.024Z,10.93
2019-05-23T05:33:37.257Z,12.78
2019-05-23T05:36:07.760Z,15.13
2019-05-23T05:38:36.417Z,18.55
2019-05-23T05:41:06.261Z,20.43
2019-05-23T05:43:35.474Z,23.57
2019-05-23T05:46:05.410Z,24.87
2019-05-23T05:48:34.774Z,21.00
2019-05-23T05:51:05.936Z,18.57
2019-05-23T05:53:35.009Z,15.58
2019-05-23T05:56:04.203Z,16.62
2019-05-23T05:58:33.023Z,18.90
2019-05-23T06:01:03.026Z,18.55
2019-05-23T06:03:31.801Z,18.95
2019-05-23T06:06:17.350Z,18.57
2019-05-23T06:08:54.133Z,15.90
2019-05-23T06:11:22.861Z,14.25
2019-05-23T06:13:51.888Z,14.45
2019-05-23T06:16:20.946Z,17.32
2019-05-23T06:18:49.771Z,12.60
2019-05-23T06:21:26.530Z,7.80
2019-05-23T06:23:56.421Z,7.83
2019-05-23T06:26:25.170Z,8.65
2019-05-23T06:28:53.991Z,6.50
2019-05-23T06:31:23.193Z,6.97
2019-05-23T06:33:52.700Z,6.70
2019-05-23T06:36:22.871Z,5.70
2019-05-23T06:38:51.974Z,6.28
2019-05-23T06:41:21.561Z,6.12
2019-05-23T06:43:51.202Z,6.70
2019-05-23T06:46:20.180Z,6.97
2019-05-23T06:48:49.279Z,8.15
2019-05-23T06:51:18.107Z,13.62
2019-05-23T06:53:46.913Z,17.12
2019-05-23T06:56:15.655Z,15.10
2019-05-23T06:58:44.371Z,14.00
2019-05-23T07:01:13.133Z,19.20
2019-05-23T07:03:43.647Z,20.35
2019-05-23T07:06:15.193Z,20.08
2019-05-23T07:08:44.039Z,23.50
2019-05-23T07:11:12.927Z,24.60
2019-05-23T07:13:42.403Z,22.98
2019-05-23T07:16:11.434Z,23.27
2019-05-23T07:18:42.098Z,20.40
2019-05-23T07:21:12.253Z,10.88
2019-05-23T07:23:41.084Z,11.18
2019-05-23T07:26:10.637Z,11.45
2019-05-23T07:28:39.901Z,9.50
2019-05-23T07:31:08.678Z,10.90
2019-05-23T07:33:37.904Z,10.35
2019-05-23T07:36:07.029Z,10.23
2019-05-23T07:38:35.794Z,8.95
2019-05-23T07:41:04.527Z,9.93
2019-05-23T07:43:35.980Z,10.70
2019-05-23T07:46:05.176Z,11.60
2019-05-23T07:48:35.244Z,15.55
2019-05-23T07:51:04.121Z,15.08
2019-05-23T07:53:44.238Z,12.15
2019-05-23T07:56:16.413Z,10.82
2019-05-23T08:01:25.490Z,10.00
2019-05-23T08:03:56.118Z,10.72
2019-05-23T08:06:24.838Z,9.58
2019-05-23T08:08:54.024Z,10.20
2019-05-23T08:11:23.391Z,7.60
2019-05-23T08:13:53.605Z,7.10
2019-05-23T08:16:24.172Z,5.60
2019-05-23T08:18:53.234Z,5.60
2019-05-23T08:21:23.020Z,5.50
2019-05-23T08:23:51.698Z,5.28
2019-05-23T08:26:21.778Z,5.37
2019-05-23T08:29:12.225Z,5.47
2019-05-23T08:31:22.238Z,5.30
2019-05-23T08:33:51.104Z,5.53
2019-05-23T08:36:20.521Z,5.40
2019-05-23T08:38:49.767Z,5.50
2019-05-23T08:41:18.901Z,5.20
2019-05-23T08:43:47.629Z,4.70
2019-05-23T08:46:16.955Z,4.42
2019-05-23T08:48:45.761Z,4.12
2019-05-23T08:51:14.959Z,4.17
2019-05-23T08:53:43.693Z,4.80
2019-05-23T08:56:18.711Z,4.35
2019-05-23T08:58:43.009Z,4.20
2019-05-23T09:01:11.897Z,4.25
2019-05-23T09:03:40.684Z,4.12
2019-05-23T09:06:11.378Z,4.33
2019-05-23T09:08:41.400Z,4.47
2019-05-23T09:11:11.287Z,4.12
2019-05-23T09:13:40.006Z,3.95
2019-05-23T09:16:09.861Z,3.95
2019-05-23T09:18:38.578Z,3.60
2019-05-23T09:21:07.409Z,3.60
2019-05-23T09:23:36.342Z,4.12
2019-05-23T09:26:05.184Z,4.00
2019-05-23T09:28:33.935Z,3.85
2019-05-23T09:31:03.122Z,3.90
2019-05-23T09:33:31.881Z,4.35
2019-05-23T09:36:01.076Z,4.00
2019-05-23T09:38:29.850Z,4.78
2019-05-23T09:40:58.574Z,4.97
2019-05-23T09:43:27.597Z,4.90
2019-05-23T09:45:56.316Z,5.00
2019-05-23T09:48:25.157Z,5.60
2019-05-23T09:50:53.927Z,4.95
2019-05-23T09:53:22.938Z,5.30
2019-05-23T09:55:51.656Z,4.83
2019-05-23T09:58:20.402Z,5.60
2019-05-23T10:00:49.122Z,4.22
2019-05-23T10:03:18.121Z,4.70
2019-05-23T10:05:46.945Z,4.33
2019-05-23T10:08:15.703Z,4.22
2019-05-23T10:10:46.198Z,3.45
2019-05-23T10:13:16.091Z,3.65
2019-05-23T10:16:01.911Z,3.67
2019-05-23T10:18:30.689Z,3.25
2019-05-23T10:20:59.449Z,3.50
2019-05-23T10:23:28.161Z,3.20
2019-05-23T10:25:56.891Z,3.35
2019-05-23T10:28:25.676Z,3.12
2019-05-23T10:30:54.470Z,3.30
2019-05-23T10:33:24.110Z,3.55
2019-05-23T10:36:00.295Z,3.50
2019-05-23T10:38:24.068Z,3.62
2019-05-23T10:40:53.019Z,3.33
2019-05-23T10:43:21.877Z,3.83
2019-05-23T10:45:50.915Z,3.72
2019-05-23T10:48:21.294Z,3.83
2019-05-23T10:50:50.284Z,3.80
2019-05-23T10:53:19.295Z,4.10
2019-05-23T10:55:48.028Z,3.87
2019-05-23T10:58:28.559Z,4.33
2019-05-23T11:00:58.056Z,3.90
2019-05-23T11:03:27.526Z,3.22
2019-05-23T11:05:57.008Z,3.50
2019-05-23T11:08:28.809Z,3.60
2019-05-23T11:10:56.208Z,3.87
2019-05-23T11:13:44.424Z,3.80
2019-05-23T11:16:13.491Z,3.37
2019-05-23T11:18:42.238Z,3.70
2019-05-23T11:21:11.072Z,3.72
2019-05-23T11:23:41.440Z,3.52
2019-05-23T11:26:10.928Z,3.25
2019-05-23T11:28:58.945Z,3.77
2019-05-23T11:31:28.050Z,3.42
2019-05-23T11:33:56.975Z,4.05
2019-05-23T11:36:35.544Z,3.52
2019-05-23T11:38:57.180Z,2.80
2019-05-23T11:41:25.878Z,2.83
2019-05-23T11:43:54.655Z,2.60
2019-05-23T11:46:28.197Z,2.85
2019-05-23T11:48:57.594Z,2.50
2019-05-23T11:51:26.620Z,3.10
2019-05-23T11:54:07.083Z,2.90
2019-05-23T11:56:26.305Z,2.65
2019-05-23T11:58:55.063Z,2.70
2019-05-23T12:01:26.429Z,2.95
2019-05-23T12:03:56.804Z,2.40
2019-05-23T12:06:27.231Z,2.58
2019-05-23T12:08:55.945Z,2.50
2019-05-23T12:11:28.189Z,2.62
2019-05-23T12:13:56.948Z,2.37
2019-05-23T12:16:25.680Z,2.20
2019-05-23T12:18:54.395Z,2.20
2019-05-23T12:21:23.621Z,2.30
2019-05-23T12:23:52.311Z,2.37
2019-05-23T12:26:21.067Z,2.40
2019-05-23T12:28:49.864Z,2.40
2019-05-23T12:31:18.661Z,6.25
2019-05-23T12:33:47.462Z,2.55
2019-05-23T12:36:16.179Z,2.42
2019-05-23T12:38:44.931Z,2.02
2019-05-23T12:41:15.355Z,2.80
2019-05-23T12:43:44.009Z,2.45
2019-05-23T12:46:12.794Z,2.47
2019-05-23T12:48:52.240Z,2.20
2019-05-23T12:51:25.489Z,2.20
2019-05-23T12:53:54.331Z,2.35
2019-05-23T12:56:23.156Z,1.77
2019-05-23T12:58:52.413Z,1.98
2019-05-23T13:01:22.562Z,1.80
2019-05-23T13:03:54.278Z,2.15
2019-05-23T13:06:23.459Z,1.90
2019-05-23T13:08:52.234Z,1.87
2019-05-23T13:11:21.197Z,1.70
2019-05-23T13:13:49.833Z,1.90
2019-05-23T13:16:18.582Z,1.40
2019-05-23T13:18:47.278Z,1.67
2019-05-23T13:21:16.095Z,1.47
2019-05-23T13:23:45.029Z,1.70
2019-05-23T13:26:13.903Z,1.40
2019-05-23T13:28:49.054Z,1.20
2019-05-23T13:31:17.846Z,1.55
2019-05-23T13:33:46.667Z,1.50
2019-05-23T13:36:16.754Z,1.30
2019-05-23T13:38:45.871Z,1.32
2019-05-23T13:41:14.855Z,1.40
2019-05-23T13:43:43.633Z,1.15
2019-05-23T13:46:12.369Z,1.37
2019-05-23T13:48:41.178Z,1.12
2019-05-23T13:51:09.897Z,1.42
2019-05-23T13:53:38.611Z,1.57
2019-05-23T13:56:07.644Z,1.20
2019-05-23T13:58:36.577Z,1.35
2019-05-23T14:01:09.392Z,1.45
2019-05-23T14:03:36.638Z,1.35
2019-05-23T14:06:07.229Z,1.15
2019-05-23T14:08:36.017Z,1.20
2019-05-23T14:11:06.750Z,1.50
2019-05-23T14:13:35.627Z,1.40
2019-05-23T14:16:05.910Z,1.30
2019-05-23T14:18:36.052Z,1.35
2019-05-23T14:21:05.078Z,1.82
2019-05-23T14:23:36.024Z,1.57
2019-05-23T14:26:05.036Z,1.75
2019-05-23T14:28:34.060Z,1.67
2019-05-23T14:31:04.436Z,2.15
2019-05-23T14:33:34.804Z,2.20
2019-05-23T14:36:05.536Z,2.90
2019-05-23T14:38:38.191Z,2.17
2019-05-23T14:41:08.313Z,1.67
2019-05-23T14:43:37.506Z,1.45
2019-05-23T14:46:07.874Z,1.70
2019-05-23T14:48:53.317Z,1.27
2019-05-23T14:51:26.590Z,2.05
2019-05-23T14:53:59.668Z,1.90
2019-05-23T14:56:30.540Z,2.20
2019-05-23T14:58:59.259Z,1.70
2019-05-23T15:01:29.733Z,1.60
2019-05-23T15:03:58.485Z,2.22
2019-05-23T15:06:27.425Z,2.47
2019-05-23T15:08:56.443Z,2.17
2019-05-23T15:11:25.233Z,2.50
2019-05-23T15:13:54.041Z,2.58
2019-05-23T15:16:23.668Z,2.60
2019-05-23T15:18:52.891Z,2.85
2019-05-23T15:21:21.682Z,3.10
2019-05-23T15:23:50.400Z,4.28
2019-05-23T15:26:22.919Z,4.83
2019-05-23T15:28:49.605Z,4.80
2019-05-23T15:31:19.940Z,6.08
2019-05-23T15:33:48.708Z,6.97
2019-05-23T15:36:17.530Z,12.85
2019-05-23T15:38:46.511Z,13.75
2019-05-23T15:41:15.253Z,16.85
2019-05-23T15:43:44.120Z,16.77
2019-05-23T15:46:14.665Z,17.62
2019-05-23T15:48:43.488Z,17.35
2019-05-23T15:51:14.210Z,19.23
2019-05-23T15:54:03.104Z,20.55
2019-05-23T15:56:40.542Z,18.70
2019-05-23T15:59:14.429Z,19.57
2019-05-23T16:01:45.895Z,18.52
2019-05-23T16:04:16.262Z,19.33
2019-05-23T16:06:47.555Z,13.68
2019-05-23T16:09:28.700Z,12.40
2019-05-23T16:11:47.250Z,10.00
2019-05-23T16:14:16.333Z,9.40
2019-05-23T16:16:45.437Z,9.13
2019-05-23T16:19:14.178Z,9.60
2019-05-23T16:21:42.871Z,9.85
2019-05-23T16:24:12.171Z,9.45
2019-05-23T16:26:40.931Z,9.98
2019-05-23T16:29:10.695Z,9.85
2019-05-23T16:31:39.752Z,9.58
2019-05-23T16:34:08.566Z,10.40
2019-05-23T16:36:37.374Z,10.28
2019-05-23T16:39:08.095Z,10.45
2019-05-23T16:41:36.903Z,9.80
2019-05-23T16:44:07.020Z,11.15
2019-05-23T16:46:36.775Z,9.95
2019-05-23T16:49:05.926Z,11.03
2019-05-23T16:51:34.913Z,10.18
2019-05-23T16:54:03.689Z,9.90
2019-05-23T16:56:40.392Z,10.95
2019-05-23T16:59:10.671Z,11.00
2019-05-23T17:01:57.079Z,10.98
2019-05-23T17:04:19.350Z,11.20
2019-05-23T17:07:01.405Z,10.28
2019-05-23T17:09:40.908Z,10.25
2019-05-23T17:12:23.145Z,10.18
2019-05-23T17:14:55.981Z,10.53
2019-05-23T17:17:49.032Z,9.80
2019-05-23T17:20:01.377Z,10.40
2019-05-23T17:22:37.817Z,11.00
2019-05-23T17:25:12.684Z,10.98
2019-05-23T17:27:51.986Z,10.95
2019-05-23T17:30:28.420Z,10.00
2019-05-23T17:32:57.173Z,10.58
2019-05-23T17:35:27.473Z,9.90
2019-05-23T17:37:56.472Z,10.70
2019-05-23T17:40:25.786Z,11.57
2019-05-23T17:42:55.281Z,10.98
2019-05-23T17:45:26.128Z,12.23
2019-05-23T17:47:55.834Z,11.68
2019-05-23T17:50:24.970Z,11.88
2019-05-23T17:52:53.809Z,11.15
2019-05-23T17:55:22.744Z,12.13
2019-05-23T17:57:51.652Z,11.73
2019-05-23T18:00:22.114Z,12.78
2019-05-23T18:02:51.330Z,11.85
2019-05-23T18:05:20.844Z,13.40
2019-05-23T18:07:49.538Z,12.55
2019-05-23T18:10:18.710Z,13.28
2019-05-23T18:12:47.624Z,13.18
2019-05-23T18:15:17.517Z,12.73
2019-05-23T18:17:47.228Z,12.40
2019-05-23T18:20:16.533Z,13.98
2019-05-23T18:22:45.185Z,13.95
2019-05-23T18:25:14.525Z,14.00
2019-05-23T18:27:46.809Z,13.22
2019-05-23T18:30:20.619Z,14.33
2019-05-23T18:32:50.030Z,13.40
2019-05-23T18:35:19.191Z,13.15
2019-05-23T18:37:47.929Z,14.20
2019-05-23T18:40:17.606Z,14.78
2019-05-23T18:42:46.473Z,14.23
2019-05-23T18:45:16.644Z,14.85
2019-05-23T18:47:45.707Z,13.93
2019-05-23T18:50:15.857Z,14.58
2019-05-23T18:52:44.689Z,14.90
2019-05-23T18:55:14.527Z,14.95
2019-05-23T18:57:45.304Z,14.93
2019-05-23T19:00:14.925Z,14.98
2019-05-23T19:02:43.730Z,15.08
2019-05-23T19:05:13.444Z,14.75
2019-05-23T19:07:43.261Z,15.18
2019-05-23T19:10:13.758Z,14.95
2019-05-23T19:12:42.865Z,15.45
2019-05-23T19:15:12.871Z,15.75
2019-05-23T19:17:41.719Z,14.75
2019-05-23T19:20:12.017Z,15.05
2019-05-23T19:22:40.812Z,15.58
2019-05-23T19:25:11.276Z,16.48
2019-05-23T19:27:40.012Z,16.02
2019-05-23T19:30:10.622Z,15.90
2019-05-23T19:32:39.391Z,15.15
2019-05-23T19:35:09.342Z,14.98
2019-05-23T19:37:38.159Z,15.30
2019-05-23T19:40:08.340Z,14.85
2019-05-23T19:42:37.637Z,14.63
2019-05-23T19:45:08.034Z,14.30
2019-05-23T19:47:36.927Z,14.85
2019-05-23T19:50:09.145Z,15.93
2019-05-23T19:52:37.997Z,15.50
2019-05-23T19:55:10.016Z,15.08
2019-05-23T19:57:39.896Z,15.15
2019-05-23T20:00:11.220Z,14.65
2019-05-23T20:02:41.584Z,14.95
2019-05-23T20:05:13.945Z,14.70
2019-05-23T20:10:12.317Z,13.93
2019-05-23T20:12:41.116Z,14.75
2019-05-23T20:15:09.873Z,14.53
2019-05-23T20:17:38.566Z,14.35
2019-05-23T20:20:11.880Z,14.87
2019-05-23T20:22:40.672Z,13.90
2019-05-23T20:25:11.164Z,14.50
2019-05-23T20:27:39.833Z,14.10
2019-05-23T20:30:10.400Z,14.65
2019-05-23T20:32:39.181Z,14.68
2019-05-23T20:35:07.968Z,14.40
2019-05-23T20:37:37.098Z,14.25
2019-05-23T20:40:06.473Z,14.15
2019-05-23T20:42:35.155Z,15.03
2019-05-23T20:45:04.796Z,17.12
2019-05-23T20:47:34.296Z,16.42
2019-05-23T20:50:03.226Z,15.60
2019-05-23T20:52:31.955Z,15.63
2019-05-23T20:55:00.692Z,17.30
2019-05-23T20:57:29.408Z,16.45
2019-05-23T20:59:58.137Z,16.05
2019-05-23T21:02:26.940Z,16.93
2019-05-23T21:04:55.720Z,17.20
2019-05-23T21:07:24.397Z,16.57
2019-05-23T21:09:53.116Z,16.30
2019-05-23T21:12:30.012Z,17.48
2019-05-23T21:14:52.145Z,15.63
2019-05-23T21:17:20.978Z,16.87
2019-05-23T21:19:49.777Z,16.97
2019-05-23T21:22:18.571Z,14.87
2019-05-23T21:24:47.268Z,15.60
2019-05-23T21:27:17.372Z,14.98
2019-05-23T21:29:46.275Z,14.95
2019-05-23T21:32:15.067Z,14.65
2019-05-23T21:34:43.864Z,15.50
2019-05-23T21:37:12.752Z,15.88
2019-05-23T21:39:41.414Z,15.15
2019-05-23T21:42:10.145Z,15.53
2019-05-23T21:44:38.841Z,14.68
2019-05-23T21:47:08.443Z,14.47
2019-05-23T21:49:37.092Z,13.62
2019-05-23T21:52:06.488Z,14.85
2019-05-23T21:54:35.213Z,15.43
2019-05-23T21:57:04.246Z,14.45
2019-05-23T21:59:32.903Z,14.45
2019-05-23T22:02:06.188Z,14.90
2019-05-23T22:04:36.500Z,14.63
2019-05-23T22:07:05.293Z,15.10
2019-05-23T22:09:34.190Z,15.05
2019-05-23T22:12:03.781Z,13.80
2019-05-23T22:14:32.800Z,14.65
2019-05-23T22:17:01.533Z,14.00
2019-05-23T22:19:30.184Z,13.68
2019-05-23T22:21:58.952Z,14.28
2019-05-23T22:24:27.679Z,14.55
2019-05-23T22:26:56.409Z,14.28
2019-05-23T22:29:25.418Z,15.15
2019-05-23T22:31:56.502Z,15.35
2019-05-23T22:34:29.025Z,14.70
2019-05-23T22:36:58.944Z,15.10
2019-05-23T22:39:28.043Z,14.03
2019-05-23T22:41:56.760Z,14.23
2019-05-23T22:44:25.513Z,15.35
2019-05-23T22:46:54.308Z,14.28
2019-05-23T22:49:23.036Z,14.70
2019-05-23T22:51:51.765Z,15.95
2019-05-23T22:54:20.484Z,15.95
2019-05-23T22:56:49.141Z,14.50
2019-05-23T22:59:17.874Z,15.50
2019-05-23T23:01:46.689Z,15.98
2019-05-23T23:04:15.408Z,15.85
2019-05-23T23:06:44.141Z,15.15
2019-05-23T23:09:12.885Z,15.98
2019-05-23T23:11:41.629Z,15.72
2019-05-23T23:14:10.393Z,15.43
2019-05-23T23:16:39.124Z,15.55
2019-05-23T23:19:08.042Z,15.38
2019-05-23T23:21:36.834Z,16.73
2019-05-23T23:24:05.560Z,16.07
2019-05-23T23:26:34.361Z,15.95
2019-05-23T23:29:03.753Z,16.05
2019-05-23T23:31:32.588Z,15.90
2019-05-23T23:34:01.354Z,16.05
2019-05-23T23:36:30.108Z,15.58
2019-05-23T23:38:58.837Z,15.75
2019-05-23T23:41:27.634Z,16.48
2019-05-23T23:43:59.634Z,16.07
2019-05-23T23:46:44.627Z,16.40
2019-05-23T23:49:31.649Z,15.85
2019-05-23T23:52:18.212Z,16.77
2019-05-23T23:55:04.859Z,17.57
2019-05-23T23:57:51.888Z,16.02
